sensor_id;sensor_type;location;lat;lon;timestamp;temperature;humidity
29453;DHT22;16424;50.956;5.320;2023-02-15T00:01:25;4.20;99.90
29453;DHT22;16424;50.956;5.320;2023-02-15T00:03:51;4.30;99.90
29453;DHT22;16424;50.956;5.320;2023-02-15T00:06:17;4.20;99.90
29453;DHT22;16424;50.956;5.320;2023-02-15T00:08:43;4.10;99.90
29453;DHT22;16424;50.956;5.320;2023-02-15T00:11:11;4.10;99.90
29453;DHT22;16424;50.956;5.320;2023-02-15T00:13:37;4.00;99.90
29453;DHT22;16424;50.956;5.320;2023-02-15T00:16:09;3.90;99.90
29453;DHT22;16424;50.956;5.320;2023-02-15T00:18:35;3.90;99.90
29453;DHT22;16424;50.956;5.320;2023-02-15T00:21:09;3.90;99.90
29453;DHT22;16424;50.956;5.320;2023-02-15T00:23:36;3.80;99.90
29453;DHT22;16424;50.956;5.320;2023-02-15T00:26:10;3.80;99.90
29453;DHT22;16424;50.956;5.320;2023-02-15T00:28:36;3.70;99.90
29453;DHT22;16424;50.956;5.320;2023-02-15T00:31:06;3.70;99.90
29453;DHT22;16424;50.956;5.320;2023-02-15T00:33:32;3.70;99.90
29453;DHT22;16424;50.956;5.320;2023-02-15T00:35:59;3.60;99.90
29453;DHT22;16424;50.956;5.320;2023-02-15T00:38:26;3.60;99.90
29453;DHT22;16424;50.956;5.320;2023-02-15T00:40:54;3.60;99.90
29453;DHT22;16424;50.956;5.320;2023-02-15T00:43:19;3.50;99.90
29453;DHT22;16424;50.956;5.320;2023-02-15T00:45:45;3.50;99.90
29453;DHT22;16424;50.956;5.320;2023-02-15T00:48:11;3.50;99.90
29453;DHT22;16424;50.956;5.320;2023-02-15T00:50:37;3.40;99.90
29453;DHT22;16424;50.956;5.320;2023-02-15T00:53:02;3.30;99.90
29453;DHT22;16424;50.956;5.320;2023-02-15T00:55:28;3.30;99.90
29453;DHT22;16424;50.956;5.320;2023-02-15T00:57:54;3.40;99.90
29453;DHT22;16424;50.956;5.320;2023-02-15T01:00:19;3.50;99.90
29453;DHT22;16424;50.956;5.320;2023-02-15T01:02:45;3.60;99.90
29453;DHT22;16424;50.956;5.320;2023-02-15T01:05:11;3.50;99.90
29453;DHT22;16424;50.956;5.320;2023-02-15T01:07:36;3.50;99.90
29453;DHT22;16424;50.956;5.320;2023-02-15T01:10:02;3.50;99.90
29453;DHT22;16424;50.956;5.320;2023-02-15T01:12:28;3.40;99.90
29453;DHT22;16424;50.956;5.320;2023-02-15T01:14:53;3.20;99.90
29453;DHT22;16424;50.956;5.320;2023-02-15T01:17:19;3.20;99.90
29453;DHT22;16424;50.956;5.320;2023-02-15T01:19:45;3.30;99.90
29453;DHT22;16424;50.956;5.320;2023-02-15T01:22:10;3.50;99.90
29453;DHT22;16424;50.956;5.320;2023-02-15T01:24:36;3.40;99.90
29453;DHT22;16424;50.956;5.320;2023-02-15T01:27:02;3.50;99.90
29453;DHT22;16424;50.956;5.320;2023-02-15T01:29:28;3.50;99.90
29453;DHT22;16424;50.956;5.320;2023-02-15T01:31:53;3.60;99.90
29453;DHT22;16424;50.956;5.320;2023-02-15T01:34:19;3.50;99.90
29453;DHT22;16424;50.956;5.320;2023-02-15T01:36:45;3.60;99.90
29453;DHT22;16424;50.956;5.320;2023-02-15T01:39:11;3.60;99.90
29453;DHT22;16424;50.956;5.320;2023-02-15T01:41:36;3.50;99.90
29453;DHT22;16424;50.956;5.320;2023-02-15T01:44:03;3.50;99.90
29453;DHT22;16424;50.956;5.320;2023-02-15T01:46:52;3.40;99.90
29453;DHT22;16424;50.956;5.320;2023-02-15T01:49:21;3.40;99.90
29453;DHT22;16424;50.956;5.320;2023-02-15T01:51:50;3.40;99.90
29453;DHT22;16424;50.956;5.320;2023-02-15T01:54:25;3.30;99.90
29453;DHT22;16424;50.956;5.320;2023-02-15T01:56:54;3.30;99.90
29453;DHT22;16424;50.956;5.320;2023-02-15T01:59:22;3.30;99.90
29453;DHT22;16424;50.956;5.320;2023-02-15T02:01:51;3.00;99.90
29453;DHT22;16424;50.956;5.320;2023-02-15T02:07:29;2.90;99.90
29453;DHT22;16424;50.956;5.320;2023-02-15T02:09:57;3.00;99.90
29453;DHT22;16424;50.956;5.320;2023-02-15T02:12:23;3.20;99.90
29453;DHT22;16424;50.956;5.320;2023-02-15T02:14:51;3.20;99.90
29453;DHT22;16424;50.956;5.320;2023-02-15T02:17:30;3.20;99.90
29453;DHT22;16424;50.956;5.320;2023-02-15T02:36:39;2.90;99.90
29453;DHT22;16424;50.956;5.320;2023-02-15T02:39:30;3.00;99.90
29453;DHT22;16424;50.956;5.320;2023-02-15T02:44:51;3.00;99.90
29453;DHT22;16424;50.956;5.320;2023-02-15T02:47:23;3.00;99.90
29453;DHT22;16424;50.956;5.320;2023-02-15T02:49:58;3.00;99.90
29453;DHT22;16424;50.956;5.320;2023-02-15T02:58:32;2.70;99.90
29453;DHT22;16424;50.956;5.320;2023-02-15T03:01:24;2.90;99.90
29453;DHT22;16424;50.956;5.320;2023-02-15T03:03:58;2.80;99.90
29453;DHT22;16424;50.956;5.320;2023-02-15T03:11:50;2.60;99.90
29453;DHT22;16424;50.956;5.320;2023-02-15T03:14:18;2.60;99.90
29453;DHT22;16424;50.956;5.320;2023-02-15T03:16:47;2.80;99.90
29453;DHT22;16424;50.956;5.320;2023-02-15T03:19:21;2.80;99.90
29453;DHT22;16424;50.956;5.320;2023-02-15T03:21:50;2.70;99.90
29453;DHT22;16424;50.956;5.320;2023-02-15T03:24:26;2.70;99.90
29453;DHT22;16424;50.956;5.320;2023-02-15T03:26:54;2.70;99.90
29453;DHT22;16424;50.956;5.320;2023-02-15T03:29:23;2.70;99.90
29453;DHT22;16424;50.956;5.320;2023-02-15T03:31:54;2.60;99.90
29453;DHT22;16424;50.956;5.320;2023-02-15T03:34:22;2.50;99.90
29453;DHT22;16424;50.956;5.320;2023-02-15T03:36:52;2.50;99.90
29453;DHT22;16424;50.956;5.320;2023-02-15T03:45:07;2.40;99.90
29453;DHT22;16424;50.956;5.320;2023-02-15T03:47:39;2.30;99.90
29453;DHT22;16424;50.956;5.320;2023-02-15T03:50:08;2.40;99.90
29453;DHT22;16424;50.956;5.320;2023-02-15T03:52:56;2.60;99.90
29453;DHT22;16424;50.956;5.320;2023-02-15T03:55:23;2.60;99.90
29453;DHT22;16424;50.956;5.320;2023-02-15T03:57:49;2.70;99.90
29453;DHT22;16424;50.956;5.320;2023-02-15T04:00:36;2.70;99.90
29453;DHT22;16424;50.956;5.320;2023-02-15T04:05:46;2.80;99.90
29453;DHT22;16424;50.956;5.320;2023-02-15T04:08:12;2.80;99.90
29453;DHT22;16424;50.956;5.320;2023-02-15T04:10:38;2.80;99.90
29453;DHT22;16424;50.956;5.320;2023-02-15T04:13:29;2.80;99.90
29453;DHT22;16424;50.956;5.320;2023-02-15T04:15:55;2.70;99.90
29453;DHT22;16424;50.956;5.320;2023-02-15T04:18:40;2.60;99.90
29453;DHT22;16424;50.956;5.320;2023-02-15T04:21:27;2.60;99.90
29453;DHT22;16424;50.956;5.320;2023-02-15T04:24:12;2.50;99.90
29453;DHT22;16424;50.956;5.320;2023-02-15T04:26:57;2.50;99.90
29453;DHT22;16424;50.956;5.320;2023-02-15T04:29:24;2.50;99.90
29453;DHT22;16424;50.956;5.320;2023-02-15T04:31:51;2.50;99.90
29453;DHT22;16424;50.956;5.320;2023-02-15T04:34:17;2.40;99.90
29453;DHT22;16424;50.956;5.320;2023-02-15T04:36:43;2.40;99.90
29453;DHT22;16424;50.956;5.320;2023-02-15T04:39:11;2.40;99.90
29453;DHT22;16424;50.956;5.320;2023-02-15T04:41:37;2.50;99.90
29453;DHT22;16424;50.956;5.320;2023-02-15T04:44:03;2.50;99.90
29453;DHT22;16424;50.956;5.320;2023-02-15T04:46:29;2.50;99.90
29453;DHT22;16424;50.956;5.320;2023-02-15T04:48:55;2.40;99.90
29453;DHT22;16424;50.956;5.320;2023-02-15T04:51:20;2.40;99.90
29453;DHT22;16424;50.956;5.320;2023-02-15T04:53:46;2.50;99.90
29453;DHT22;16424;50.956;5.320;2023-02-15T04:56:12;2.60;99.90
29453;DHT22;16424;50.956;5.320;2023-02-15T04:58:38;2.60;99.90
29453;DHT22;16424;50.956;5.320;2023-02-15T05:01:09;2.50;99.90
29453;DHT22;16424;50.956;5.320;2023-02-15T05:03:35;2.50;99.90
29453;DHT22;16424;50.956;5.320;2023-02-15T05:06:01;2.30;99.90
29453;DHT22;16424;50.956;5.320;2023-02-15T05:08:27;2.20;99.90
29453;DHT22;16424;50.956;5.320;2023-02-15T05:10:52;2.20;99.90
29453;DHT22;16424;50.956;5.320;2023-02-15T05:13:18;2.30;99.90
29453;DHT22;16424;50.956;5.320;2023-02-15T05:15:48;2.40;99.90
29453;DHT22;16424;50.956;5.320;2023-02-15T05:18:15;2.40;99.90
29453;DHT22;16424;50.956;5.320;2023-02-15T05:20:41;2.40;99.90
29453;DHT22;16424;50.956;5.320;2023-02-15T05:23:06;2.30;99.90
29453;DHT22;16424;50.956;5.320;2023-02-15T05:25:32;2.40;99.90
29453;DHT22;16424;50.956;5.320;2023-02-15T05:28:16;2.40;99.90
29453;DHT22;16424;50.956;5.320;2023-02-15T05:33:22;2.10;99.90
29453;DHT22;16424;50.956;5.320;2023-02-15T05:35:48;2.00;99.90
29453;DHT22;16424;50.956;5.320;2023-02-15T05:38:14;1.90;99.90
29453;DHT22;16424;50.956;5.320;2023-02-15T05:40:39;2.00;99.90
29453;DHT22;16424;50.956;5.320;2023-02-15T05:43:05;2.10;99.90
29453;DHT22;16424;50.956;5.320;2023-02-15T05:45:31;2.10;99.90
29453;DHT22;16424;50.956;5.320;2023-02-15T05:47:56;2.00;99.90
29453;DHT22;16424;50.956;5.320;2023-02-15T05:50:23;2.00;99.90
29453;DHT22;16424;50.956;5.320;2023-02-15T05:52:50;2.00;99.90
29453;DHT22;16424;50.956;5.320;2023-02-15T05:55:15;2.00;99.90
29453;DHT22;16424;50.956;5.320;2023-02-15T05:57:41;2.10;99.90
29453;DHT22;16424;50.956;5.320;2023-02-15T06:00:08;2.30;99.90
29453;DHT22;16424;50.956;5.320;2023-02-15T06:02:35;2.30;99.90
29453;DHT22;16424;50.956;5.320;2023-02-15T06:05:01;2.40;99.90
29453;DHT22;16424;50.956;5.320;2023-02-15T06:07:27;2.40;99.90
29453;DHT22;16424;50.956;5.320;2023-02-15T06:09:53;2.40;99.90
29453;DHT22;16424;50.956;5.320;2023-02-15T06:12:18;2.30;99.90
29453;DHT22;16424;50.956;5.320;2023-02-15T06:14:44;2.10;99.90
29453;DHT22;16424;50.956;5.320;2023-02-15T06:17:09;2.00;99.90
29453;DHT22;16424;50.956;5.320;2023-02-15T06:19:35;1.90;99.90
29453;DHT22;16424;50.956;5.320;2023-02-15T06:22:01;2.00;99.90
29453;DHT22;16424;50.956;5.320;2023-02-15T06:24:26;2.10;99.90
29453;DHT22;16424;50.956;5.320;2023-02-15T06:26:52;2.20;99.90
29453;DHT22;16424;50.956;5.320;2023-02-15T06:29:17;2.20;99.90
29453;DHT22;16424;50.956;5.320;2023-02-15T06:31:43;2.30;99.90
29453;DHT22;16424;50.956;5.320;2023-02-15T06:34:09;2.30;99.90
29453;DHT22;16424;50.956;5.320;2023-02-15T06:36:34;2.10;99.90
29453;DHT22;16424;50.956;5.320;2023-02-15T06:39:00;1.90;99.90
29453;DHT22;16424;50.956;5.320;2023-02-15T06:41:28;1.90;99.90
29453;DHT22;16424;50.956;5.320;2023-02-15T06:43:53;1.90;99.90
29453;DHT22;16424;50.956;5.320;2023-02-15T06:46:19;2.00;99.90
29453;DHT22;16424;50.956;5.320;2023-02-15T06:48:45;2.00;99.90
29453;DHT22;16424;50.956;5.320;2023-02-15T06:51:10;2.00;99.90
29453;DHT22;16424;50.956;5.320;2023-02-15T06:53:36;2.10;99.90
29453;DHT22;16424;50.956;5.320;2023-02-15T06:56:03;2.20;99.90
29453;DHT22;16424;50.956;5.320;2023-02-15T06:58:37;2.30;99.90
29453;DHT22;16424;50.956;5.320;2023-02-15T07:01:04;2.30;99.90
29453;DHT22;16424;50.956;5.320;2023-02-15T07:03:30;2.40;99.90
29453;DHT22;16424;50.956;5.320;2023-02-15T07:05:57;2.50;99.90
29453;DHT22;16424;50.956;5.320;2023-02-15T07:08:23;2.50;99.90
29453;DHT22;16424;50.956;5.320;2023-02-15T07:10:50;2.40;99.90
29453;DHT22;16424;50.956;5.320;2023-02-15T07:13:17;2.30;99.90
29453;DHT22;16424;50.956;5.320;2023-02-15T07:15:43;2.40;99.90
29453;DHT22;16424;50.956;5.320;2023-02-15T07:18:09;2.40;99.90
29453;DHT22;16424;50.956;5.320;2023-02-15T07:20:37;2.50;99.90
29453;DHT22;16424;50.956;5.320;2023-02-15T07:23:03;2.60;99.90
29453;DHT22;16424;50.956;5.320;2023-02-15T07:25:29;2.80;99.90
29453;DHT22;16424;50.956;5.320;2023-02-15T07:27:59;3.00;99.90
29453;DHT22;16424;50.956;5.320;2023-02-15T07:30:26;3.10;99.90
29453;DHT22;16424;50.956;5.320;2023-02-15T07:32:58;3.10;99.90
29453;DHT22;16424;50.956;5.320;2023-02-15T07:35:50;3.20;99.90
29453;DHT22;16424;50.956;5.320;2023-02-15T07:38:16;3.40;99.90
29453;DHT22;16424;50.956;5.320;2023-02-15T07:40:43;3.50;99.90
29453;DHT22;16424;50.956;5.320;2023-02-15T07:43:08;3.60;99.90
29453;DHT22;16424;50.956;5.320;2023-02-15T07:45:34;4.00;99.90
29453;DHT22;16424;50.956;5.320;2023-02-15T07:48:01;4.40;99.90
29453;DHT22;16424;50.956;5.320;2023-02-15T07:50:27;5.00;99.90
29453;DHT22;16424;50.956;5.320;2023-02-15T07:52:53;5.50;99.90
29453;DHT22;16424;50.956;5.320;2023-02-15T07:55:19;6.30;99.90
29453;DHT22;16424;50.956;5.320;2023-02-15T07:57:46;6.90;99.90
29453;DHT22;16424;50.956;5.320;2023-02-15T08:00:17;7.50;99.90
29453;DHT22;16424;50.956;5.320;2023-02-15T08:02:53;8.00;99.90
29453;DHT22;16424;50.956;5.320;2023-02-15T08:05:39;8.10;99.90
29453;DHT22;16424;50.956;5.320;2023-02-15T08:08:06;7.90;99.90
29453;DHT22;16424;50.956;5.320;2023-02-15T08:10:31;8.00;99.90
29453;DHT22;16424;50.956;5.320;2023-02-15T08:13:15;8.20;99.90
29453;DHT22;16424;50.956;5.320;2023-02-15T08:15:50;8.60;99.90
29453;DHT22;16424;50.956;5.320;2023-02-15T08:18:16;8.50;99.90
29453;DHT22;16424;50.956;5.320;2023-02-15T08:20:42;8.60;99.90
29453;DHT22;16424;50.956;5.320;2023-02-15T08:23:08;8.70;99.90
29453;DHT22;16424;50.956;5.320;2023-02-15T08:25:33;9.00;99.90
29453;DHT22;16424;50.956;5.320;2023-02-15T08:27:59;9.00;99.90
29453;DHT22;16424;50.956;5.320;2023-02-15T08:30:25;8.90;99.90
29453;DHT22;16424;50.956;5.320;2023-02-15T08:32:50;9.30;99.90
29453;DHT22;16424;50.956;5.320;2023-02-15T08:35:16;9.10;99.90
29453;DHT22;16424;50.956;5.320;2023-02-15T08:37:42;9.00;99.90
29453;DHT22;16424;50.956;5.320;2023-02-15T08:40:08;9.30;99.90
29453;DHT22;16424;50.956;5.320;2023-02-15T08:42:34;9.40;99.90
29453;DHT22;16424;50.956;5.320;2023-02-15T08:44:59;9.80;99.90
29453;DHT22;16424;50.956;5.320;2023-02-15T08:47:25;10.20;99.90
29453;DHT22;16424;50.956;5.320;2023-02-15T08:49:51;10.80;99.90
29453;DHT22;16424;50.956;5.320;2023-02-15T08:52:17;11.00;99.90
29453;DHT22;16424;50.956;5.320;2023-02-15T08:54:43;10.70;99.90
29453;DHT22;16424;50.956;5.320;2023-02-15T08:57:09;11.00;99.90
29453;DHT22;16424;50.956;5.320;2023-02-15T08:59:35;10.90;99.90
29453;DHT22;16424;50.956;5.320;2023-02-15T09:02:01;10.60;99.90
29453;DHT22;16424;50.956;5.320;2023-02-15T09:04:28;10.50;99.90
29453;DHT22;16424;50.956;5.320;2023-02-15T09:06:53;10.60;99.90
29453;DHT22;16424;50.956;5.320;2023-02-15T09:09:21;10.20;99.90
29453;DHT22;16424;50.956;5.320;2023-02-15T09:11:49;10.10;99.90
29453;DHT22;16424;50.956;5.320;2023-02-15T09:14:19;10.20;99.90
29453;DHT22;16424;50.956;5.320;2023-02-15T09:16:49;10.50;99.90
29453;DHT22;16424;50.956;5.320;2023-02-15T09:19:18;10.70;99.90
29453;DHT22;16424;50.956;5.320;2023-02-15T09:21:44;10.90;99.90
29453;DHT22;16424;50.956;5.320;2023-02-15T09:24:13;10.80;99.90
29453;DHT22;16424;50.956;5.320;2023-02-15T09:26:42;11.00;99.90
29453;DHT22;16424;50.956;5.320;2023-02-15T09:29:09;11.40;99.90
29453;DHT22;16424;50.956;5.320;2023-02-15T09:31:41;11.70;99.90
29453;DHT22;16424;50.956;5.320;2023-02-15T09:34:09;12.10;99.90
29453;DHT22;16424;50.956;5.320;2023-02-15T09:36:37;12.30;99.90
29453;DHT22;16424;50.956;5.320;2023-02-15T09:39:29;12.40;99.90
29453;DHT22;16424;50.956;5.320;2023-02-15T09:42:21;12.60;99.90
29453;DHT22;16424;50.956;5.320;2023-02-15T09:58:02;14.20;99.90
29453;DHT22;16424;50.956;5.320;2023-02-15T10:01:00;14.10;99.90
29453;DHT22;16424;50.956;5.320;2023-02-15T10:06:51;14.20;99.90
29453;DHT22;16424;50.956;5.320;2023-02-15T10:18:19;12.70;99.90
29453;DHT22;16424;50.956;5.320;2023-02-15T10:26:20;12.00;99.90
29453;DHT22;16424;50.956;5.320;2023-02-15T10:34:38;12.00;99.90
29453;DHT22;16424;50.956;5.320;2023-02-15T10:40:22;12.10;99.90
29453;DHT22;16424;50.956;5.320;2023-02-15T10:48:17;12.30;99.90
29453;DHT22;16424;50.956;5.320;2023-02-15T10:51:00;12.50;99.90
29453;DHT22;16424;50.956;5.320;2023-02-15T11:07:06;12.90;99.90
29453;DHT22;16424;50.956;5.320;2023-02-15T11:09:40;13.20;99.90
29453;DHT22;16424;50.956;5.320;2023-02-15T11:12:16;13.40;99.90
29453;DHT22;16424;50.956;5.320;2023-02-15T11:14:50;13.40;99.90
29453;DHT22;16424;50.956;5.320;2023-02-15T11:17:29;13.60;99.90
29453;DHT22;16424;50.956;5.320;2023-02-15T11:20:28;13.70;99.90
29453;DHT22;16424;50.956;5.320;2023-02-15T11:22:55;13.70;99.90
29453;DHT22;16424;50.956;5.320;2023-02-15T11:25:40;14.00;99.90
29453;DHT22;16424;50.956;5.320;2023-02-15T11:28:13;14.30;99.90
29453;DHT22;16424;50.956;5.320;2023-02-15T11:30:49;14.30;99.90
29453;DHT22;16424;50.956;5.320;2023-02-15T11:33:25;14.00;99.90
29453;DHT22;16424;50.956;5.320;2023-02-15T11:38:26;14.30;99.90
29453;DHT22;16424;50.956;5.320;2023-02-15T11:41:18;14.00;99.90
29453;DHT22;16424;50.956;5.320;2023-02-15T11:43:58;13.90;99.90
29453;DHT22;16424;50.956;5.320;2023-02-15T11:46:26;14.20;99.90
29453;DHT22;16424;50.956;5.320;2023-02-15T11:48:52;14.50;99.90
29453;DHT22;16424;50.956;5.320;2023-02-15T11:51:20;14.40;99.90
29453;DHT22;16424;50.956;5.320;2023-02-15T11:53:46;14.40;99.90
29453;DHT22;16424;50.956;5.320;2023-02-15T11:56:19;14.10;99.90
29453;DHT22;16424;50.956;5.320;2023-02-15T11:58:59;14.10;99.90
29453;DHT22;16424;50.956;5.320;2023-02-15T12:06:33;14.00;99.90
29453;DHT22;16424;50.956;5.320;2023-02-15T12:09:20;14.20;99.90
29453;DHT22;16424;50.956;5.320;2023-02-15T12:11:49;14.50;99.90
29453;DHT22;16424;50.956;5.320;2023-02-15T12:14:14;14.60;99.90
29453;DHT22;16424;50.956;5.320;2023-02-15T12:16:48;14.60;99.90
29453;DHT22;16424;50.956;5.320;2023-02-15T12:19:38;14.40;99.90
29453;DHT22;16424;50.956;5.320;2023-02-15T12:22:36;14.50;99.90
29453;DHT22;16424;50.956;5.320;2023-02-15T12:27:56;15.00;99.90
29453;DHT22;16424;50.956;5.320;2023-02-15T12:30:28;15.10;99.90
29453;DHT22;16424;50.956;5.320;2023-02-15T12:35:40;15.20;99.90
29453;DHT22;16424;50.956;5.320;2023-02-15T12:38:23;14.90;99.90
29453;DHT22;16424;50.956;5.320;2023-02-15T12:43:43;15.00;99.90
29453;DHT22;16424;50.956;5.320;2023-02-15T12:46:35;15.10;99.90
29453;DHT22;16424;50.956;5.320;2023-02-15T12:49:19;15.30;99.90
29453;DHT22;16424;50.956;5.320;2023-02-15T12:51:51;15.50;99.90
29453;DHT22;16424;50.956;5.320;2023-02-15T12:56:50;14.80;99.90
29453;DHT22;16424;50.956;5.320;2023-02-15T12:59:17;14.60;99.90
29453;DHT22;16424;50.956;5.320;2023-02-15T13:01:46;14.50;99.90
29453;DHT22;16424;50.956;5.320;2023-02-15T13:06:49;14.70;99.90
29453;DHT22;16424;50.956;5.320;2023-02-15T13:14:35;15.10;99.90
29453;DHT22;16424;50.956;5.320;2023-02-15T13:17:04;15.10;99.90
29453;DHT22;16424;50.956;5.320;2023-02-15T13:19:49;15.10;99.90
29453;DHT22;16424;50.956;5.320;2023-02-15T13:22:24;15.40;99.90
29453;DHT22;16424;50.956;5.320;2023-02-15T13:25:01;15.50;99.90
29453;DHT22;16424;50.956;5.320;2023-02-15T13:27:40;15.30;99.90
29453;DHT22;16424;50.956;5.320;2023-02-15T13:30:33;15.20;99.90
29453;DHT22;16424;50.956;5.320;2023-02-15T13:33:12;15.00;99.90
29453;DHT22;16424;50.956;5.320;2023-02-15T13:41:23;14.60;99.90
29453;DHT22;16424;50.956;5.320;2023-02-15T13:44:13;14.90;99.90
29453;DHT22;16424;50.956;5.320;2023-02-15T13:52:23;15.10;99.90
29453;DHT22;16424;50.956;5.320;2023-02-15T14:00:36;15.20;99.90
29453;DHT22;16424;50.956;5.320;2023-02-15T14:09:03;15.10;99.90
29453;DHT22;16424;50.956;5.320;2023-02-15T14:11:44;15.00;99.90
29453;DHT22;16424;50.956;5.320;2023-02-15T14:20:02;15.10;99.90
29453;DHT22;16424;50.956;5.320;2023-02-15T14:30:51;15.00;99.90
29453;DHT22;16424;50.956;5.320;2023-02-15T14:33:34;15.10;99.90
29453;DHT22;16424;50.956;5.320;2023-02-15T14:36:01;14.90;99.90
29453;DHT22;16424;50.956;5.320;2023-02-15T14:44:16;14.70;99.90
29453;DHT22;16424;50.956;5.320;2023-02-15T14:49:33;14.30;99.90
29453;DHT22;16424;50.956;5.320;2023-02-15T14:52:04;14.50;99.90
29453;DHT22;16424;50.956;5.320;2023-02-15T15:02:49;14.90;99.90
29453;DHT22;16424;50.956;5.320;2023-02-15T15:05:32;14.70;99.90
29453;DHT22;16424;50.956;5.320;2023-02-15T15:07:59;14.90;99.90
29453;DHT22;16424;50.956;5.320;2023-02-15T15:10:37;14.90;99.90
29453;DHT22;16424;50.956;5.320;2023-02-15T15:19:04;14.50;99.90
29453;DHT22;16424;50.956;5.320;2023-02-15T15:27:40;14.50;99.90
29453;DHT22;16424;50.956;5.320;2023-02-15T15:32:54;14.10;99.90
29453;DHT22;16424;50.956;5.320;2023-02-15T15:49:15;14.20;99.90
29453;DHT22;16424;50.956;5.320;2023-02-15T15:51:42;14.30;99.90
29453;DHT22;16424;50.956;5.320;2023-02-15T15:54:18;14.30;99.90
29453;DHT22;16424;50.956;5.320;2023-02-15T15:56:48;14.20;99.90
29453;DHT22;16424;50.956;5.320;2023-02-15T15:59:22;14.20;99.90
29453;DHT22;16424;50.956;5.320;2023-02-15T16:01:49;14.10;99.90
29453;DHT22;16424;50.956;5.320;2023-02-15T16:04:34;14.10;99.90
29453;DHT22;16424;50.956;5.320;2023-02-15T16:10:19;14.20;99.90
29453;DHT22;16424;50.956;5.320;2023-02-15T16:12:47;14.10;99.90
29453;DHT22;16424;50.956;5.320;2023-02-15T16:15:24;13.90;99.90
29453;DHT22;16424;50.956;5.320;2023-02-15T16:17:53;13.90;99.90
29453;DHT22;16424;50.956;5.320;2023-02-15T16:20:26;13.80;99.90
29453;DHT22;16424;50.956;5.320;2023-02-15T16:28:11;13.80;99.90
29453;DHT22;16424;50.956;5.320;2023-02-15T16:30:38;13.70;99.90
29453;DHT22;16424;50.956;5.320;2023-02-15T16:33:07;13.60;99.90
29453;DHT22;16424;50.956;5.320;2023-02-15T16:35:35;13.60;99.90
29453;DHT22;16424;50.956;5.320;2023-02-15T16:38:02;13.50;99.90
29453;DHT22;16424;50.956;5.320;2023-02-15T16:40:46;13.50;99.90
29453;DHT22;16424;50.956;5.320;2023-02-15T16:43:19;13.40;99.90
29453;DHT22;16424;50.956;5.320;2023-02-15T16:45:46;13.20;99.90
29453;DHT22;16424;50.956;5.320;2023-02-15T16:48:18;13.20;99.90
29453;DHT22;16424;50.956;5.320;2023-02-15T16:50:51;13.00;99.90
29453;DHT22;16424;50.956;5.320;2023-02-15T16:53:21;12.90;99.90
29453;DHT22;16424;50.956;5.320;2023-02-15T16:55:54;12.70;99.90
29453;DHT22;16424;50.956;5.320;2023-02-15T16:58:26;12.70;99.90
29453;DHT22;16424;50.956;5.320;2023-02-15T17:00:56;12.60;99.90
29453;DHT22;16424;50.956;5.320;2023-02-15T17:03:24;12.50;99.90
29453;DHT22;16424;50.956;5.320;2023-02-15T17:05:56;12.40;99.90
29453;DHT22;16424;50.956;5.320;2023-02-15T17:11:32;12.30;99.90
29453;DHT22;16424;50.956;5.320;2023-02-15T17:14:10;12.10;99.90
29453;DHT22;16424;50.956;5.320;2023-02-15T17:16:45;12.00;99.90
29453;DHT22;16424;50.956;5.320;2023-02-15T17:19:23;11.90;99.90
29453;DHT22;16424;50.956;5.320;2023-02-15T17:22:04;11.80;99.90
29453;DHT22;16424;50.956;5.320;2023-02-15T17:24:42;11.80;99.90
29453;DHT22;16424;50.956;5.320;2023-02-15T17:27:16;11.70;99.90
29453;DHT22;16424;50.956;5.320;2023-02-15T17:29:50;11.70;99.90
29453;DHT22;16424;50.956;5.320;2023-02-15T17:32:22;11.50;99.90
29453;DHT22;16424;50.956;5.320;2023-02-15T17:35:20;11.40;99.90
29453;DHT22;16424;50.956;5.320;2023-02-15T17:37:48;11.20;99.90
29453;DHT22;16424;50.956;5.320;2023-02-15T17:40:26;11.00;99.90
29453;DHT22;16424;50.956;5.320;2023-02-15T17:42:53;11.00;99.90
29453;DHT22;16424;50.956;5.320;2023-02-15T17:45:20;11.00;99.90
29453;DHT22;16424;50.956;5.320;2023-02-15T17:47:48;10.80;99.90
29453;DHT22;16424;50.956;5.320;2023-02-15T17:50:23;10.80;99.90
29453;DHT22;16424;50.956;5.320;2023-02-15T17:52:50;10.80;99.90
29453;DHT22;16424;50.956;5.320;2023-02-15T17:55:19;10.90;99.90
29453;DHT22;16424;50.956;5.320;2023-02-15T17:58:06;10.90;99.90
29453;DHT22;16424;50.956;5.320;2023-02-15T18:00:35;10.80;99.90
29453;DHT22;16424;50.956;5.320;2023-02-15T18:03:20;10.80;99.90
29453;DHT22;16424;50.956;5.320;2023-02-15T18:06:05;10.70;99.90
29453;DHT22;16424;50.956;5.320;2023-02-15T18:08:49;10.40;99.90
29453;DHT22;16424;50.956;5.320;2023-02-15T18:11:33;10.30;99.90
29453;DHT22;16424;50.956;5.320;2023-02-15T18:14:03;10.30;99.90
29453;DHT22;16424;50.956;5.320;2023-02-15T18:16:37;10.40;99.90
29453;DHT22;16424;50.956;5.320;2023-02-15T18:19:04;10.50;99.90
29453;DHT22;16424;50.956;5.320;2023-02-15T18:21:31;10.50;99.90
29453;DHT22;16424;50.956;5.320;2023-02-15T18:23:57;10.40;99.90
29453;DHT22;16424;50.956;5.320;2023-02-15T18:26:25;10.30;99.90
29453;DHT22;16424;50.956;5.320;2023-02-15T18:28:51;10.20;99.90
29453;DHT22;16424;50.956;5.320;2023-02-15T18:31:18;10.20;99.90
29453;DHT22;16424;50.956;5.320;2023-02-15T18:33:53;10.20;99.90
29453;DHT22;16424;50.956;5.320;2023-02-15T18:36:27;10.10;99.90
29453;DHT22;16424;50.956;5.320;2023-02-15T18:38:55;10.00;99.90
29453;DHT22;16424;50.956;5.320;2023-02-15T18:41:22;10.10;99.90
29453;DHT22;16424;50.956;5.320;2023-02-15T18:43:49;10.10;99.90
29453;DHT22;16424;50.956;5.320;2023-02-15T18:46:15;10.00;99.90
29453;DHT22;16424;50.956;5.320;2023-02-15T18:48:41;10.00;99.90
29453;DHT22;16424;50.956;5.320;2023-02-15T18:51:18;10.10;99.90
29453;DHT22;16424;50.956;5.320;2023-02-15T18:53:45;10.30;99.90
29453;DHT22;16424;50.956;5.320;2023-02-15T18:56:15;10.30;99.90
29453;DHT22;16424;50.956;5.320;2023-02-15T18:58:41;10.20;99.90
29453;DHT22;16424;50.956;5.320;2023-02-15T19:01:19;10.20;99.90
29453;DHT22;16424;50.956;5.320;2023-02-15T19:03:49;10.20;99.90
29453;DHT22;16424;50.956;5.320;2023-02-15T19:06:20;10.10;99.90
29453;DHT22;16424;50.956;5.320;2023-02-15T19:08:51;10.10;99.90
29453;DHT22;16424;50.956;5.320;2023-02-15T19:11:19;10.10;99.90
29453;DHT22;16424;50.956;5.320;2023-02-15T19:13:48;10.10;99.90
29453;DHT22;16424;50.956;5.320;2023-02-15T19:18:52;10.00;99.90
29453;DHT22;16424;50.956;5.320;2023-02-15T19:21:18;9.80;99.90
29453;DHT22;16424;50.956;5.320;2023-02-15T19:23:50;9.50;99.90
29453;DHT22;16424;50.956;5.320;2023-02-15T19:26:18;9.30;99.90
29453;DHT22;16424;50.956;5.320;2023-02-15T19:28:44;9.20;99.90
29453;DHT22;16424;50.956;5.320;2023-02-15T19:31:13;9.10;99.90
29453;DHT22;16424;50.956;5.320;2023-02-15T19:33:39;9.00;99.90
29453;DHT22;16424;50.956;5.320;2023-02-15T19:36:08;9.00;99.90
29453;DHT22;16424;50.956;5.320;2023-02-15T19:38:38;9.00;99.90
29453;DHT22;16424;50.956;5.320;2023-02-15T19:41:07;9.00;99.90
29453;DHT22;16424;50.956;5.320;2023-02-15T19:43:33;8.90;99.90
29453;DHT22;16424;50.956;5.320;2023-02-15T19:45:59;8.90;99.90
29453;DHT22;16424;50.956;5.320;2023-02-15T19:48:25;8.80;99.90